sensor_id;sensor_type;location;lat;lon;timestamp;P1;durP1;ratioP1;P2;durP2;ratioP2
73283;SDS011;61519;60.050;18.582;2024-02-26T00:00:58;11.77;;;4.50;;
73283;SDS011;61519;60.050;18.582;2024-02-26T00:03:23;11.37;;;5.07;;
73283;SDS011;61519;60.050;18.582;2024-02-26T00:05:50;8.23;;;4.00;;
73283;SDS011;61519;60.050;18.582;2024-02-26T00:08:16;8.37;;;4.53;;
73283;SDS011;61519;60.050;18.582;2024-02-26T00:10:41;9.47;;;4.53;;
73283;SDS011;61519;60.050;18.582;2024-02-26T00:13:07;8.23;;;3.65;;
73283;SDS011;61519;60.050;18.582;2024-02-26T00:15:33;9.43;;;4.10;;
73283;SDS011;61519;60.050;18.582;2024-02-26T00:18:00;9.35;;;3.83;;
73283;SDS011;61519;60.050;18.582;2024-02-26T00:20:25;6.87;;;4.00;;
73283;SDS011;61519;60.050;18.582;2024-02-26T00:22:51;9.80;;;3.80;;
73283;SDS011;61519;60.050;18.582;2024-02-26T00:25:17;10.10;;;4.32;;
73283;SDS011;61519;60.050;18.582;2024-02-26T00:27:42;10.20;;;3.73;;
73283;SDS011;61519;60.050;18.582;2024-02-26T00:30:09;7.95;;;3.70;;
73283;SDS011;61519;60.050;18.582;2024-02-26T00:32:35;14.73;;;4.03;;
73283;SDS011;61519;60.050;18.582;2024-02-26T00:35:00;6.13;;;3.53;;
73283;SDS011;61519;60.050;18.582;2024-02-26T00:37:26;8.52;;;4.00;;
73283;SDS011;61519;60.050;18.582;2024-02-26T00:39:51;9.47;;;4.30;;
73283;SDS011;61519;60.050;18.582;2024-02-26T00:42:18;8.93;;;3.90;;
73283;SDS011;61519;60.050;18.582;2024-02-26T00:44:43;6.73;;;3.77;;
73283;SDS011;61519;60.050;18.582;2024-02-26T00:47:08;7.35;;;3.75;;
73283;SDS011;61519;60.050;18.582;2024-02-26T00:49:34;8.02;;;3.75;;
73283;SDS011;61519;60.050;18.582;2024-02-26T00:51:59;7.50;;;3.63;;
73283;SDS011;61519;60.050;18.582;2024-02-26T00:54:25;9.33;;;3.80;;
73283;SDS011;61519;60.050;18.582;2024-02-26T00:56:50;10.10;;;3.80;;
73283;SDS011;61519;60.050;18.582;2024-02-26T00:59:15;8.33;;;3.67;;
73283;SDS011;61519;60.050;18.582;2024-02-26T01:01:40;11.37;;;4.30;;
73283;SDS011;61519;60.050;18.582;2024-02-26T01:04:06;6.60;;;3.50;;
73283;SDS011;61519;60.050;18.582;2024-02-26T01:06:31;10.10;;;3.97;;
73283;SDS011;61519;60.050;18.582;2024-02-26T01:08:56;7.97;;;3.63;;
73283;SDS011;61519;60.050;18.582;2024-02-26T01:11:22;9.50;;;4.03;;
73283;SDS011;61519;60.050;18.582;2024-02-26T01:13:47;7.77;;;4.00;;
73283;SDS011;61519;60.050;18.582;2024-02-26T01:16:12;7.95;;;3.90;;
73283;SDS011;61519;60.050;18.582;2024-02-26T01:18:38;9.38;;;3.78;;
73283;SDS011;61519;60.050;18.582;2024-02-26T01:21:03;11.30;;;4.17;;
73283;SDS011;61519;60.050;18.582;2024-02-26T01:23:32;9.10;;;3.97;;
73283;SDS011;61519;60.050;18.582;2024-02-26T01:25:57;10.18;;;4.88;;
73283;SDS011;61519;60.050;18.582;2024-02-26T01:28:22;10.63;;;3.93;;
73283;SDS011;61519;60.050;18.582;2024-02-26T01:30:48;11.33;;;4.37;;
73283;SDS011;61519;60.050;18.582;2024-02-26T01:33:13;9.70;;;4.10;;
73283;SDS011;61519;60.050;18.582;2024-02-26T01:35:38;10.77;;;4.10;;
73283;SDS011;61519;60.050;18.582;2024-02-26T01:38:04;8.05;;;3.90;;
73283;SDS011;61519;60.050;18.582;2024-02-26T01:40:29;11.33;;;3.47;;
73283;SDS011;61519;60.050;18.582;2024-02-26T01:42:55;7.43;;;3.40;;
73283;SDS011;61519;60.050;18.582;2024-02-26T01:45:20;10.03;;;4.20;;
73283;SDS011;61519;60.050;18.582;2024-02-26T01:47:52;9.02;;;3.90;;
73283;SDS011;61519;60.050;18.582;2024-02-26T01:50:18;11.27;;;4.07;;
73283;SDS011;61519;60.050;18.582;2024-02-26T01:52:45;6.75;;;3.72;;
73283;SDS011;61519;60.050;18.582;2024-02-26T01:55:12;8.90;;;3.90;;
73283;SDS011;61519;60.050;18.582;2024-02-26T01:57:39;6.70;;;3.10;;
73283;SDS011;61519;60.050;18.582;2024-02-26T02:00:07;9.63;;;4.10;;
73283;SDS011;61519;60.050;18.582;2024-02-26T02:02:32;8.13;;;3.63;;
73283;SDS011;61519;60.050;18.582;2024-02-26T02:04:58;6.53;;;3.53;;
73283;SDS011;61519;60.050;18.582;2024-02-26T02:07:23;9.37;;;4.13;;
73283;SDS011;61519;60.050;18.582;2024-02-26T02:09:50;7.72;;;3.70;;
73283;SDS011;61519;60.050;18.582;2024-02-26T02:12:15;6.17;;;3.17;;
73283;SDS011;61519;60.050;18.582;2024-02-26T02:14:40;9.53;;;3.60;;
73283;SDS011;61519;60.050;18.582;2024-02-26T02:17:06;8.32;;;4.03;;
73283;SDS011;61519;60.050;18.582;2024-02-26T02:19:32;7.33;;;3.57;;
73283;SDS011;61519;60.050;18.582;2024-02-26T02:21:57;7.40;;;3.67;;
73283;SDS011;61519;60.050;18.582;2024-02-26T02:24:23;5.90;;;2.60;;
73283;SDS011;61519;60.050;18.582;2024-02-26T02:26:48;10.03;;;3.50;;
73283;SDS011;61519;60.050;18.582;2024-02-26T02:29:13;8.13;;;3.77;;
73283;SDS011;61519;60.050;18.582;2024-02-26T02:31:39;10.60;;;3.70;;
73283;SDS011;61519;60.050;18.582;2024-02-26T02:34:05;8.37;;;3.47;;
73283;SDS011;61519;60.050;18.582;2024-02-26T02:36:31;6.15;;;3.40;;
73283;SDS011;61519;60.050;18.582;2024-02-26T02:38:56;8.43;;;3.10;;
73283;SDS011;61519;60.050;18.582;2024-02-26T02:41:22;7.47;;;3.47;;
73283;SDS011;61519;60.050;18.582;2024-02-26T02:43:47;11.03;;;3.67;;
73283;SDS011;61519;60.050;18.582;2024-02-26T02:46:12;7.57;;;3.13;;
73283;SDS011;61519;60.050;18.582;2024-02-26T02:48:38;6.47;;;3.37;;
73283;SDS011;61519;60.050;18.582;2024-02-26T02:51:04;8.43;;;3.57;;
73283;SDS011;61519;60.050;18.582;2024-02-26T02:53:29;6.68;;;3.33;;
73283;SDS011;61519;60.050;18.582;2024-02-26T02:55:54;8.63;;;4.23;;
73283;SDS011;61519;60.050;18.582;2024-02-26T02:58:21;7.45;;;3.70;;
73283;SDS011;61519;60.050;18.582;2024-02-26T03:00:46;7.93;;;3.47;;
73283;SDS011;61519;60.050;18.582;2024-02-26T03:03:12;9.70;;;3.87;;
73283;SDS011;61519;60.050;18.582;2024-02-26T03:05:37;7.90;;;3.23;;
73283;SDS011;61519;60.050;18.582;2024-02-26T03:08:03;8.30;;;3.83;;
73283;SDS011;61519;60.050;18.582;2024-02-26T03:10:28;6.93;;;3.72;;
73283;SDS011;61519;60.050;18.582;2024-02-26T03:12:54;8.00;;;3.73;;
73283;SDS011;61519;60.050;18.582;2024-02-26T03:15:19;6.90;;;3.60;;
73283;SDS011;61519;60.050;18.582;2024-02-26T03:17:45;6.87;;;3.67;;
73283;SDS011;61519;60.050;18.582;2024-02-26T03:20:10;13.83;;;4.27;;
73283;SDS011;61519;60.050;18.582;2024-02-26T03:22:38;8.52;;;3.80;;
73283;SDS011;61519;60.050;18.582;2024-02-26T03:25:03;9.97;;;4.30;;
73283;SDS011;61519;60.050;18.582;2024-02-26T03:27:29;8.02;;;3.80;;
73283;SDS011;61519;60.050;18.582;2024-02-26T03:29:54;6.90;;;4.17;;
73283;SDS011;61519;60.050;18.582;2024-02-26T03:32:20;8.97;;;3.97;;
73283;SDS011;61519;60.050;18.582;2024-02-26T03:34:45;9.20;;;3.80;;
73283;SDS011;61519;60.050;18.582;2024-02-26T03:37:10;8.43;;;4.03;;
73283;SDS011;61519;60.050;18.582;2024-02-26T03:39:36;6.97;;;3.67;;
73283;SDS011;61519;60.050;18.582;2024-02-26T03:42:02;9.65;;;4.47;;
73283;SDS011;61519;60.050;18.582;2024-02-26T03:44:28;9.50;;;4.13;;
73283;SDS011;61519;60.050;18.582;2024-02-26T03:46:53;6.83;;;3.70;;
73283;SDS011;61519;60.050;18.582;2024-02-26T03:49:19;10.53;;;4.20;;
73283;SDS011;61519;60.050;18.582;2024-02-26T03:51:44;8.57;;;4.17;;
73283;SDS011;61519;60.050;18.582;2024-02-26T03:54:09;11.00;;;3.90;;
73283;SDS011;61519;60.050;18.582;2024-02-26T03:56:35;11.83;;;5.00;;
73283;SDS011;61519;60.050;18.582;2024-02-26T03:59:00;8.57;;;3.93;;
73283;SDS011;61519;60.050;18.582;2024-02-26T04:01:27;8.27;;;3.80;;
73283;SDS011;61519;60.050;18.582;2024-02-26T04:03:53;10.40;;;3.80;;
73283;SDS011;61519;60.050;18.582;2024-02-26T04:06:18;8.63;;;4.30;;
73283;SDS011;61519;60.050;18.582;2024-02-26T04:08:46;9.60;;;4.20;;
73283;SDS011;61519;60.050;18.582;2024-02-26T04:11:13;9.30;;;3.70;;
73283;SDS011;61519;60.050;18.582;2024-02-26T04:13:42;10.27;;;4.15;;
73283;SDS011;61519;60.050;18.582;2024-02-26T04:16:10;9.30;;;4.45;;
73283;SDS011;61519;60.050;18.582;2024-02-26T04:18:36;10.63;;;4.00;;
73283;SDS011;61519;60.050;18.582;2024-02-26T04:21:02;9.17;;;4.97;;
73283;SDS011;61519;60.050;18.582;2024-02-26T04:23:27;12.65;;;3.85;;
73283;SDS011;61519;60.050;18.582;2024-02-26T04:25:52;7.73;;;3.97;;
73283;SDS011;61519;60.050;18.582;2024-02-26T04:28:18;8.03;;;3.87;;
73283;SDS011;61519;60.050;18.582;2024-02-26T04:30:45;8.80;;;3.92;;
73283;SDS011;61519;60.050;18.582;2024-02-26T04:33:11;8.52;;;3.92;;
73283;SDS011;61519;60.050;18.582;2024-02-26T04:35:37;10.33;;;4.40;;
73283;SDS011;61519;60.050;18.582;2024-02-26T04:38:02;9.37;;;3.90;;
73283;SDS011;61519;60.050;18.582;2024-02-26T04:40:27;11.47;;;4.20;;
73283;SDS011;61519;60.050;18.582;2024-02-26T04:42:53;7.57;;;3.77;;
73283;SDS011;61519;60.050;18.582;2024-02-26T04:45:18;8.57;;;4.40;;
73283;SDS011;61519;60.050;18.582;2024-02-26T04:47:43;9.43;;;4.40;;
73283;SDS011;61519;60.050;18.582;2024-02-26T04:50:09;10.97;;;4.30;;
73283;SDS011;61519;60.050;18.582;2024-02-26T04:52:34;7.15;;;3.97;;
73283;SDS011;61519;60.050;18.582;2024-02-26T04:55:01;8.97;;;4.10;;
73283;SDS011;61519;60.050;18.582;2024-02-26T04:57:27;10.13;;;4.05;;
73283;SDS011;61519;60.050;18.582;2024-02-26T04:59:52;7.33;;;3.80;;
73283;SDS011;61519;60.050;18.582;2024-02-26T05:02:18;8.13;;;3.80;;
73283;SDS011;61519;60.050;18.582;2024-02-26T05:04:43;8.63;;;4.37;;
73283;SDS011;61519;60.050;18.582;2024-02-26T05:07:09;8.07;;;4.00;;
73283;SDS011;61519;60.050;18.582;2024-02-26T05:09:34;8.53;;;4.53;;
73283;SDS011;61519;60.050;18.582;2024-02-26T05:12:00;9.17;;;4.30;;
73283;SDS011;61519;60.050;18.582;2024-02-26T05:14:25;10.73;;;4.83;;
73283;SDS011;61519;60.050;18.582;2024-02-26T05:16:51;8.32;;;4.72;;
73283;SDS011;61519;60.050;18.582;2024-02-26T05:19:16;9.43;;;4.50;;
73283;SDS011;61519;60.050;18.582;2024-02-26T05:21:41;8.03;;;3.83;;
73283;SDS011;61519;60.050;18.582;2024-02-26T05:24:09;7.95;;;3.75;;
73283;SDS011;61519;60.050;18.582;2024-02-26T05:26:34;7.87;;;3.60;;
73283;SDS011;61519;60.050;18.582;2024-02-26T05:29:00;8.93;;;4.40;;
73283;SDS011;61519;60.050;18.582;2024-02-26T05:31:25;7.83;;;3.40;;
73283;SDS011;61519;60.050;18.582;2024-02-26T05:33:51;9.05;;;4.15;;
73283;SDS011;61519;60.050;18.582;2024-02-26T05:36:17;7.50;;;3.60;;
73283;SDS011;61519;60.050;18.582;2024-02-26T05:38:44;8.13;;;3.20;;
73283;SDS011;61519;60.050;18.582;2024-02-26T05:41:11;10.73;;;3.70;;
73283;SDS011;61519;60.050;18.582;2024-02-26T05:43:37;7.83;;;3.80;;
73283;SDS011;61519;60.050;18.582;2024-02-26T05:46:02;7.63;;;4.00;;
73283;SDS011;61519;60.050;18.582;2024-02-26T05:48:28;6.63;;;3.83;;
73283;SDS011;61519;60.050;18.582;2024-02-26T05:50:54;9.38;;;4.15;;
73283;SDS011;61519;60.050;18.582;2024-02-26T05:53:20;8.07;;;3.73;;
73283;SDS011;61519;60.050;18.582;2024-02-26T05:55:45;7.00;;;3.93;;
73283;SDS011;61519;60.050;18.582;2024-02-26T05:58:10;10.40;;;3.57;;
73283;SDS011;61519;60.050;18.582;2024-02-26T06:00:36;9.50;;;3.83;;
73283;SDS011;61519;60.050;18.582;2024-02-26T06:03:01;8.23;;;3.70;;
73283;SDS011;61519;60.050;18.582;2024-02-26T06:05:27;9.30;;;4.47;;
73283;SDS011;61519;60.050;18.582;2024-02-26T06:07:52;6.97;;;3.80;;
73283;SDS011;61519;60.050;18.582;2024-02-26T06:10:18;9.73;;;4.03;;
73283;SDS011;61519;60.050;18.582;2024-02-26T06:12:46;7.47;;;3.72;;
73283;SDS011;61519;60.050;18.582;2024-02-26T06:15:11;9.30;;;4.15;;
73283;SDS011;61519;60.050;18.582;2024-02-26T06:17:38;7.35;;;4.30;;
73283;SDS011;61519;60.050;18.582;2024-02-26T06:20:03;8.40;;;4.17;;
73283;SDS011;61519;60.050;18.582;2024-02-26T06:22:31;11.02;;;4.90;;
73283;SDS011;61519;60.050;18.582;2024-02-26T06:24:56;7.57;;;4.47;;
73283;SDS011;61519;60.050;18.582;2024-02-26T06:27:22;9.60;;;4.82;;
73283;SDS011;61519;60.050;18.582;2024-02-26T06:29:47;8.40;;;3.95;;
73283;SDS011;61519;60.050;18.582;2024-02-26T06:32:13;8.60;;;4.20;;
73283;SDS011;61519;60.050;18.582;2024-02-26T06:34:39;7.80;;;4.53;;
73283;SDS011;61519;60.050;18.582;2024-02-26T06:37:05;11.17;;;3.77;;
73283;SDS011;61519;60.050;18.582;2024-02-26T06:39:31;7.53;;;4.17;;
73283;SDS011;61519;60.050;18.582;2024-02-26T06:41:56;9.40;;;4.35;;
73283;SDS011;61519;60.050;18.582;2024-02-26T06:44:26;9.77;;;4.18;;
73283;SDS011;61519;60.050;18.582;2024-02-26T06:46:56;8.13;;;4.15;;
73283;SDS011;61519;60.050;18.582;2024-02-26T06:49:23;7.88;;;4.10;;
73283;SDS011;61519;60.050;18.582;2024-02-26T06:51:48;8.40;;;4.10;;
73283;SDS011;61519;60.050;18.582;2024-02-26T06:54:13;7.53;;;4.00;;
73283;SDS011;61519;60.050;18.582;2024-02-26T06:56:39;9.13;;;4.77;;
73283;SDS011;61519;60.050;18.582;2024-02-26T06:59:04;10.20;;;4.80;;
73283;SDS011;61519;60.050;18.582;2024-02-26T07:01:29;7.63;;;3.77;;
73283;SDS011;61519;60.050;18.582;2024-02-26T07:03:55;8.02;;;4.03;;
73283;SDS011;61519;60.050;18.582;2024-02-26T07:06:21;9.03;;;4.17;;
73283;SDS011;61519;60.050;18.582;2024-02-26T07:08:46;8.83;;;4.17;;
73283;SDS011;61519;60.050;18.582;2024-02-26T07:11:11;6.77;;;3.80;;
73283;SDS011;61519;60.050;18.582;2024-02-26T07:13:37;8.33;;;3.93;;
73283;SDS011;61519;60.050;18.582;2024-02-26T07:16:02;6.73;;;3.63;;
73283;SDS011;61519;60.050;18.582;2024-02-26T07:18:28;8.35;;;4.55;;
73283;SDS011;61519;60.050;18.582;2024-02-26T07:20:54;6.90;;;3.67;;
73283;SDS011;61519;60.050;18.582;2024-02-26T07:23:19;8.27;;;4.27;;
73283;SDS011;61519;60.050;18.582;2024-02-26T07:25:44;6.40;;;3.40;;
73283;SDS011;61519;60.050;18.582;2024-02-26T07:28:12;9.80;;;4.50;;
73283;SDS011;61519;60.050;18.582;2024-02-26T07:30:37;10.50;;;5.00;;
73283;SDS011;61519;60.050;18.582;2024-02-26T07:33:02;10.47;;;4.80;;
73283;SDS011;61519;60.050;18.582;2024-02-26T07:35:28;10.82;;;5.53;;
73283;SDS011;61519;60.050;18.582;2024-02-26T07:37:53;6.93;;;3.80;;
73283;SDS011;61519;60.050;18.582;2024-02-26T07:40:18;7.50;;;3.77;;
73283;SDS011;61519;60.050;18.582;2024-02-26T07:42:44;7.77;;;4.07;;
73283;SDS011;61519;60.050;18.582;2024-02-26T07:45:09;7.80;;;4.03;;
73283;SDS011;61519;60.050;18.582;2024-02-26T07:47:35;10.98;;;4.85;;
73283;SDS011;61519;60.050;18.582;2024-02-26T07:50:00;12.52;;;6.10;;
73283;SDS011;61519;60.050;18.582;2024-02-26T07:52:26;10.20;;;4.90;;
73283;SDS011;61519;60.050;18.582;2024-02-26T07:54:51;10.13;;;4.80;;
73283;SDS011;61519;60.050;18.582;2024-02-26T07:57:17;10.70;;;5.00;;
73283;SDS011;61519;60.050;18.582;2024-02-26T07:59:42;10.45;;;4.82;;
73283;SDS011;61519;60.050;18.582;2024-02-26T08:02:09;8.37;;;4.53;;
73283;SDS011;61519;60.050;18.582;2024-02-26T08:04:35;11.38;;;6.20;;
73283;SDS011;61519;60.050;18.582;2024-02-26T08:07:00;8.57;;;4.93;;
73283;SDS011;61519;60.050;18.582;2024-02-26T08:09:25;9.97;;;5.10;;
73283;SDS011;61519;60.050;18.582;2024-02-26T08:11:51;12.03;;;5.77;;
73283;SDS011;61519;60.050;18.582;2024-02-26T08:14:16;12.73;;;5.60;;
73283;SDS011;61519;60.050;18.582;2024-02-26T08:16:42;12.10;;;5.03;;
73283;SDS011;61519;60.050;18.582;2024-02-26T08:19:07;9.80;;;4.90;;
73283;SDS011;61519;60.050;18.582;2024-02-26T08:21:35;8.83;;;4.63;;
73283;SDS011;61519;60.050;18.582;2024-02-26T08:24:01;8.40;;;4.40;;
73283;SDS011;61519;60.050;18.582;2024-02-26T08:26:27;8.73;;;4.13;;
73283;SDS011;61519;60.050;18.582;2024-02-26T08:28:52;7.07;;;3.80;;
73283;SDS011;61519;60.050;18.582;2024-02-26T08:31:19;8.00;;;3.53;;
73283;SDS011;61519;60.050;18.582;2024-02-26T08:33:44;6.35;;;3.30;;
73283;SDS011;61519;60.050;18.582;2024-02-26T08:36:11;7.57;;;3.20;;
73283;SDS011;61519;60.050;18.582;2024-02-26T08:38:36;6.23;;;3.20;;
73283;SDS011;61519;60.050;18.582;2024-02-26T08:41:02;8.05;;;3.60;;
73283;SDS011;61519;60.050;18.582;2024-02-26T08:43:27;6.22;;;3.35;;
73283;SDS011;61519;60.050;18.582;2024-02-26T08:45:53;9.10;;;3.90;;
73283;SDS011;61519;60.050;18.582;2024-02-26T08:48:18;6.72;;;3.25;;
73283;SDS011;61519;60.050;18.582;2024-02-26T08:50:44;9.63;;;3.50;;
73283;SDS011;61519;60.050;18.582;2024-02-26T08:53:09;7.07;;;3.60;;
73283;SDS011;61519;60.050;18.582;2024-02-26T08:55:34;11.73;;;3.83;;
73283;SDS011;61519;60.050;18.582;2024-02-26T08:58:00;7.43;;;3.30;;
73283;SDS011;61519;60.050;18.582;2024-02-26T09:00:25;13.07;;;3.10;;
73283;SDS011;61519;60.050;18.582;2024-02-26T09:02:50;10.37;;;3.30;;
73283;SDS011;61519;60.050;18.582;2024-02-26T09:05:16;7.20;;;3.30;;
73283;SDS011;61519;60.050;18.582;2024-02-26T09:07:41;7.23;;;3.27;;
73283;SDS011;61519;60.050;18.582;2024-02-26T09:10:07;9.98;;;3.40;;
73283;SDS011;61519;60.050;18.582;2024-02-26T09:12:36;33.80;;;3.40;;
73283;SDS011;61519;60.050;18.582;2024-02-26T09:15:02;7.95;;;2.92;;
73283;SDS011;61519;60.050;18.582;2024-02-26T09:17:28;6.18;;;3.10;;
73283;SDS011;61519;60.050;18.582;2024-02-26T09:19:53;41.80;;;10.90;;
73283;SDS011;61519;60.050;18.582;2024-02-26T09:22:18;9.30;;;4.53;;
73283;SDS011;61519;60.050;18.582;2024-02-26T09:24:44;7.07;;;3.17;;
73283;SDS011;61519;60.050;18.582;2024-02-26T09:27:09;11.33;;;5.37;;
73283;SDS011;61519;60.050;18.582;2024-02-26T09:29:35;11.33;;;4.43;;
73283;SDS011;61519;60.050;18.582;2024-02-26T09:32:01;6.75;;;3.10;;
73283;SDS011;61519;60.050;18.582;2024-02-26T09:34:26;6.60;;;3.47;;
73283;SDS011;61519;60.050;18.582;2024-02-26T09:36:52;7.10;;;3.47;;
73283;SDS011;61519;60.050;18.582;2024-02-26T09:39:17;6.63;;;3.20;;
73283;SDS011;61519;60.050;18.582;2024-02-26T09:41:46;5.75;;;3.00;;
73283;SDS011;61519;60.050;18.582;2024-02-26T09:44:18;7.35;;;3.10;;
73283;SDS011;61519;60.050;18.582;2024-02-26T09:46:46;8.15;;;3.90;;
73283;SDS011;61519;60.050;18.582;2024-02-26T09:49:12;6.97;;;3.37;;
73283;SDS011;61519;60.050;18.582;2024-02-26T09:51:40;8.05;;;3.53;;
73283;SDS011;61519;60.050;18.582;2024-02-26T09:54:05;10.00;;;4.40;;
73283;SDS011;61519;60.050;18.582;2024-02-26T09:56:34;15.02;;;5.38;;
73283;SDS011;61519;60.050;18.582;2024-02-26T09:59:00;19.80;;;6.20;;
73283;SDS011;61519;60.050;18.582;2024-02-26T10:01:31;11.07;;;4.10;;
73283;SDS011;61519;60.050;18.582;2024-02-26T10:03:59;8.97;;;4.20;;
73283;SDS011;61519;60.050;18.582;2024-02-26T10:06:28;9.45;;;4.47;;
73283;SDS011;61519;60.050;18.582;2024-02-26T10:08:54;6.32;;;3.42;;
73283;SDS011;61519;60.050;18.582;2024-02-26T10:11:23;7.60;;;3.40;;
73283;SDS011;61519;60.050;18.582;2024-02-26T10:13:49;14.10;;;8.00;;
73283;SDS011;61519;60.050;18.582;2024-02-26T10:16:14;11.70;;;6.57;;
73283;SDS011;61519;60.050;18.582;2024-02-26T10:18:51;7.55;;;3.90;;
73283;SDS011;61519;60.050;18.582;2024-02-26T10:21:18;7.22;;;3.80;;
73283;SDS011;61519;60.050;18.582;2024-02-26T10:23:44;7.18;;;4.00;;
73283;SDS011;61519;60.050;18.582;2024-02-26T10:26:11;12.10;;;5.43;;
73283;SDS011;61519;60.050;18.582;2024-02-26T10:28:37;14.82;;;6.53;;
73283;SDS011;61519;60.050;18.582;2024-02-26T10:31:04;17.77;;;8.23;;
73283;SDS011;61519;60.050;18.582;2024-02-26T10:33:29;19.23;;;9.27;;
73283;SDS011;61519;60.050;18.582;2024-02-26T10:35:57;23.13;;;9.90;;
73283;SDS011;61519;60.050;18.582;2024-02-26T10:38:23;22.05;;;9.48;;
73283;SDS011;61519;60.050;18.582;2024-02-26T10:40:49;18.92;;;8.38;;
73283;SDS011;61519;60.050;18.582;2024-02-26T10:43:15;21.70;;;9.37;;
73283;SDS011;61519;60.050;18.582;2024-02-26T10:45:41;24.00;;;9.77;;
73283;SDS011;61519;60.050;18.582;2024-02-26T10:48:12;24.20;;;10.13;;
73283;SDS011;61519;60.050;18.582;2024-02-26T10:50:39;20.92;;;9.55;;
73283;SDS011;61519;60.050;18.582;2024-02-26T10:53:08;20.85;;;9.52;;
73283;SDS011;61519;60.050;18.582;2024-02-26T10:55:40;21.10;;;10.13;;
73283;SDS011;61519;60.050;18.582;2024-02-26T10:58:06;18.73;;;9.13;;
73283;SDS011;61519;60.050;18.582;2024-02-26T11:00:34;21.50;;;10.18;;
73283;SDS011;61519;60.050;18.582;2024-02-26T11:03:01;19.48;;;8.45;;
73283;SDS011;61519;60.050;18.582;2024-02-26T11:05:28;16.33;;;7.22;;
73283;SDS011;61519;60.050;18.582;2024-02-26T11:07:54;15.50;;;6.75;;
73283;SDS011;61519;60.050;18.582;2024-02-26T11:10:21;13.40;;;6.13;;
73283;SDS011;61519;60.050;18.582;2024-02-26T11:12:47;11.43;;;5.10;;
73283;SDS011;61519;60.050;18.582;2024-02-26T11:15:14;9.37;;;5.13;;
73283;SDS011;61519;60.050;18.582;2024-02-26T11:17:41;10.10;;;5.43;;
73283;SDS011;61519;60.050;18.582;2024-02-26T11:20:09;10.68;;;5.78;;
73283;SDS011;61519;60.050;18.582;2024-02-26T11:22:37;11.43;;;5.50;;
73283;SDS011;61519;60.050;18.582;2024-02-26T11:25:03;15.97;;;7.50;;
73283;SDS011;61519;60.050;18.582;2024-02-26T11:27:35;20.40;;;8.70;;
73283;SDS011;61519;60.050;18.582;2024-02-26T11:30:05;20.50;;;7.35;;
73283;SDS011;61519;60.050;18.582;2024-02-26T11:32:35;13.17;;;6.37;;
73283;SDS011;61519;60.050;18.582;2024-02-26T11:35:00;9.90;;;5.00;;
73283;SDS011;61519;60.050;18.582;2024-02-26T11:37:26;14.13;;;6.23;;
73283;SDS011;61519;60.050;18.582;2024-02-26T11:39:52;11.27;;;4.83;;
73283;SDS011;61519;60.050;18.582;2024-02-26T11:42:18;6.93;;;3.25;;
73283;SDS011;61519;60.050;18.582;2024-02-26T11:44:48;7.63;;;3.45;;
73283;SDS011;61519;60.050;18.582;2024-02-26T11:47:21;6.93;;;3.53;;
73283;SDS011;61519;60.050;18.582;2024-02-26T11:49:48;6.45;;;3.15;;
73283;SDS011;61519;60.050;18.582;2024-02-26T11:52:14;6.78;;;3.92;;
73283;SDS011;61519;60.050;18.582;2024-02-26T11:54:47;7.93;;;3.97;;
73283;SDS011;61519;60.050;18.582;2024-02-26T11:57:25;7.93;;;3.50;;
73283;SDS011;61519;60.050;18.582;2024-02-26T11:59:52;7.10;;;3.23;;
73283;SDS011;61519;60.050;18.582;2024-02-26T12:03:08;5.03;;;2.67;;
73283;SDS011;61519;60.050;18.582;2024-02-26T12:05:12;4.78;;;2.60;;
73283;SDS011;61519;60.050;18.582;2024-02-26T12:07:49;6.10;;;2.70;;
73283;SDS011;61519;60.050;18.582;2024-02-26T12:10:27;5.68;;;3.40;;
73283;SDS011;61519;60.050;18.582;2024-02-26T12:12:59;6.32;;;3.00;;
73283;SDS011;61519;60.050;18.582;2024-02-26T12:15:37;7.57;;;4.25;;
73283;SDS011;61519;60.050;18.582;2024-02-26T12:18:05;11.33;;;6.27;;
73283;SDS011;61519;60.050;18.582;2024-02-26T12:20:36;11.05;;;5.82;;
73283;SDS011;61519;60.050;18.582;2024-02-26T12:23:04;10.38;;;5.70;;
73283;SDS011;61519;60.050;18.582;2024-02-26T12:25:30;10.50;;;5.45;;
73283;SDS011;61519;60.050;18.582;2024-02-26T12:27:57;9.13;;;4.73;;
73283;SDS011;61519;60.050;18.582;2024-02-26T12:30:23;9.40;;;4.82;;
73283;SDS011;61519;60.050;18.582;2024-02-26T12:32:51;8.13;;;4.50;;
73283;SDS011;61519;60.050;18.582;2024-02-26T12:35:22;7.90;;;4.55;;
73283;SDS011;61519;60.050;18.582;2024-02-26T12:37:50;9.02;;;4.65;;
73283;SDS011;61519;60.050;18.582;2024-02-26T12:40:16;7.07;;;3.53;;
73283;SDS011;61519;60.050;18.582;2024-02-26T12:42:42;6.33;;;3.60;;
73283;SDS011;61519;60.050;18.582;2024-02-26T12:45:08;10.07;;;6.13;;
73283;SDS011;61519;60.050;18.582;2024-02-26T12:47:40;8.43;;;3.92;;
73283;SDS011;61519;60.050;18.582;2024-02-26T12:50:09;9.43;;;4.65;;
73283;SDS011;61519;60.050;18.582;2024-02-26T12:52:36;7.82;;;4.75;;
73283;SDS011;61519;60.050;18.582;2024-02-26T12:55:06;7.82;;;4.05;;
73283;SDS011;61519;60.050;18.582;2024-02-26T12:57:34;7.68;;;4.20;;
73283;SDS011;61519;60.050;18.582;2024-02-26T13:00:02;5.78;;;3.42;;
73283;SDS011;61519;60.050;18.582;2024-02-26T13:02:29;8.30;;;4.10;;
73283;SDS011;61519;60.050;18.582;2024-02-26T13:04:55;8.15;;;4.75;;
73283;SDS011;61519;60.050;18.582;2024-02-26T13:07:22;8.95;;;4.65;;
73283;SDS011;61519;60.050;18.582;2024-02-26T13:09:48;8.30;;;4.18;;
73283;SDS011;61519;60.050;18.582;2024-02-26T13:12:13;7.57;;;4.00;;
73283;SDS011;61519;60.050;18.582;2024-02-26T13:14:39;7.50;;;4.10;;
73283;SDS011;61519;60.050;18.582;2024-02-26T13:17:05;8.33;;;4.53;;
73283;SDS011;61519;60.050;18.582;2024-02-26T13:19:31;7.77;;;4.33;;
73283;SDS011;61519;60.050;18.582;2024-02-26T13:22:02;7.97;;;4.38;;
73283;SDS011;61519;60.050;18.582;2024-02-26T13:24:29;7.15;;;3.80;;
73283;SDS011;61519;60.050;18.582;2024-02-26T13:26:56;6.77;;;3.70;;
73283;SDS011;61519;60.050;18.582;2024-02-26T13:29:21;8.10;;;4.13;;
73283;SDS011;61519;60.050;18.582;2024-02-26T13:31:47;6.72;;;4.00;;
73283;SDS011;61519;60.050;18.582;2024-02-26T13:34:25;8.20;;;4.38;;
73283;SDS011;61519;60.050;18.582;2024-02-26T13:36:52;6.03;;;3.57;;
73283;SDS011;61519;60.050;18.582;2024-02-26T13:39:21;6.78;;;3.55;;
73283;SDS011;61519;60.050;18.582;2024-02-26T13:41:51;6.88;;;3.85;;
73283;SDS011;61519;60.050;18.582;2024-02-26T13:44:16;7.10;;;3.60;;
73283;SDS011;61519;60.050;18.582;2024-02-26T13:46:42;7.10;;;3.97;;
73283;SDS011;61519;60.050;18.582;2024-02-26T13:49:08;6.53;;;3.47;;
73283;SDS011;61519;60.050;18.582;2024-02-26T13:51:35;8.38;;;4.50;;
73283;SDS011;61519;60.050;18.582;2024-02-26T13:54:01;8.98;;;4.03;;
73283;SDS011;61519;60.050;18.582;2024-02-26T13:56:27;7.03;;;3.90;;
73283;SDS011;61519;60.050;18.582;2024-02-26T13:58:53;7.77;;;4.10;;
73283;SDS011;61519;60.050;18.582;2024-02-26T14:01:18;8.40;;;4.50;;
73283;SDS011;61519;60.050;18.582;2024-02-26T14:03:43;7.87;;;3.73;;
73283;SDS011;61519;60.050;18.582;2024-02-26T14:06:09;6.55;;;3.40;;
73283;SDS011;61519;60.050;18.582;2024-02-26T14:08:34;6.60;;;3.63;;
73283;SDS011;61519;60.050;18.582;2024-02-26T14:10:59;7.53;;;4.33;;
73283;SDS011;61519;60.050;18.582;2024-02-26T14:13:25;6.63;;;3.43;;
73283;SDS011;61519;60.050;18.582;2024-02-26T14:15:50;7.63;;;3.97;;
73283;SDS011;61519;60.050;18.582;2024-02-26T14:18:16;5.93;;;3.33;;
73283;SDS011;61519;60.050;18.582;2024-02-26T14:20:41;6.77;;;3.70;;
73283;SDS011;61519;60.050;18.582;2024-02-26T14:23:07;6.13;;;3.27;;
73283;SDS011;61519;60.050;18.582;2024-02-26T14:25:33;7.82;;;3.20;;